Germantown Hills, Illinois
Current Conditions -  °F | °C
As of 2:55 PM on Thursday 18 Dec 2014 (Local Time) from KC75 Reporting Station
Overcast Overcast  
Wind Chill: 22°   Ceiling: 8000
Heat Index: 28°   Visibility: 10mi
Dew Point: 19°   Wind: 5mph
Humidity: 69%   Direction: 310°NW
Pressure: 30.24"   Gusts: NA
Location:  40.7942°N, 89.4075°W
Report Text: KC75 182055Z AUTO 31004KT 10SM SCT075 OVC080 M02/M07 A3024 RMK AO2 T10241073
Loading
Personal Weather Stations






























Interactive Weather Map New forecast layout! Learn more

10-Day Weather Forecast

Advertisements
Track Severe Weather on mobile